sensor_id;sensor_type;location;lat;lon;timestamp;P1;durP1;ratioP1;P2;durP2;ratioP2
18100;SDS011;9177;49.156;8.142;2023-04-25T00:00:23;0.80;;;0.70;;
18100;SDS011;9177;49.156;8.142;2023-04-25T00:02:50;0.80;;;0.80;;
18100;SDS011;9177;49.156;8.142;2023-04-25T00:05:18;0.80;;;0.80;;
18100;SDS011;9177;49.156;8.142;2023-04-25T00:07:45;1.00;;;0.80;;
18100;SDS011;9177;49.156;8.142;2023-04-25T00:10:12;1.43;;;0.80;;
18100;SDS011;9177;49.156;8.142;2023-04-25T00:12:39;1.07;;;0.73;;
18100;SDS011;9177;49.156;8.142;2023-04-25T00:15:07;1.63;;;0.83;;
18100;SDS011;9177;49.156;8.142;2023-04-25T00:17:34;0.87;;;0.80;;
18100;SDS011;9177;49.156;8.142;2023-04-25T00:20:03;0.70;;;0.70;;
18100;SDS011;9177;49.156;8.142;2023-04-25T00:22:35;0.70;;;0.70;;
18100;SDS011;9177;49.156;8.142;2023-04-25T00:25:03;0.80;;;0.80;;
18100;SDS011;9177;49.156;8.142;2023-04-25T00:27:31;0.83;;;0.63;;
18100;SDS011;9177;49.156;8.142;2023-04-25T00:29:58;0.97;;;0.80;;
18100;SDS011;9177;49.156;8.142;2023-04-25T00:32:25;0.70;;;0.70;;
18100;SDS011;9177;49.156;8.142;2023-04-25T00:34:52;0.60;;;0.60;;
18100;SDS011;9177;49.156;8.142;2023-04-25T00:37:21;1.07;;;0.93;;
18100;SDS011;9177;49.156;8.142;2023-04-25T00:39:49;0.87;;;0.87;;
18100;SDS011;9177;49.156;8.142;2023-04-25T00:42:18;1.50;;;0.90;;
18100;SDS011;9177;49.156;8.142;2023-04-25T00:44:45;0.73;;;0.70;;
18100;SDS011;9177;49.156;8.142;2023-04-25T00:47:13;0.80;;;0.80;;
18100;SDS011;9177;49.156;8.142;2023-04-25T00:49:41;0.70;;;0.70;;
18100;SDS011;9177;49.156;8.142;2023-04-25T00:52:08;1.00;;;0.80;;
18100;SDS011;9177;49.156;8.142;2023-04-25T00:54:35;0.60;;;0.60;;
18100;SDS011;9177;49.156;8.142;2023-04-25T00:57:04;0.87;;;0.77;;
18100;SDS011;9177;49.156;8.142;2023-04-25T00:59:31;0.70;;;0.70;;
18100;SDS011;9177;49.156;8.142;2023-04-25T01:01:58;0.70;;;0.70;;
18100;SDS011;9177;49.156;8.142;2023-04-25T01:04:25;0.80;;;0.73;;
18100;SDS011;9177;49.156;8.142;2023-04-25T01:06:54;0.60;;;0.60;;
18100;SDS011;9177;49.156;8.142;2023-04-25T01:09:22;0.70;;;0.70;;
18100;SDS011;9177;49.156;8.142;2023-04-25T01:11:50;0.70;;;0.70;;
18100;SDS011;9177;49.156;8.142;2023-04-25T01:14:20;0.93;;;0.77;;
18100;SDS011;9177;49.156;8.142;2023-04-25T01:16:47;0.80;;;0.80;;
18100;SDS011;9177;49.156;8.142;2023-04-25T01:19:14;1.17;;;0.70;;
18100;SDS011;9177;49.156;8.142;2023-04-25T01:21:44;1.53;;;0.70;;
18100;SDS011;9177;49.156;8.142;2023-04-25T01:24:11;0.80;;;0.77;;
18100;SDS011;9177;49.156;8.142;2023-04-25T01:26:38;1.10;;;0.80;;
18100;SDS011;9177;49.156;8.142;2023-04-25T01:29:09;0.70;;;0.70;;
18100;SDS011;9177;49.156;8.142;2023-04-25T01:31:36;0.63;;;0.63;;
18100;SDS011;9177;49.156;8.142;2023-04-25T01:34:04;0.80;;;0.77;;
18100;SDS011;9177;49.156;8.142;2023-04-25T01:36:31;0.80;;;0.80;;
18100;SDS011;9177;49.156;8.142;2023-04-25T01:39:00;1.10;;;0.90;;
18100;SDS011;9177;49.156;8.142;2023-04-25T01:41:27;0.73;;;0.73;;
18100;SDS011;9177;49.156;8.142;2023-04-25T01:43:55;0.60;;;0.60;;
18100;SDS011;9177;49.156;8.142;2023-04-25T01:46:22;0.70;;;0.70;;
18100;SDS011;9177;49.156;8.142;2023-04-25T01:48:48;1.37;;;0.80;;
18100;SDS011;9177;49.156;8.142;2023-04-25T01:51:15;0.90;;;0.90;;
18100;SDS011;9177;49.156;8.142;2023-04-25T01:53:42;0.60;;;0.60;;
18100;SDS011;9177;49.156;8.142;2023-04-25T01:56:10;0.70;;;0.70;;
18100;SDS011;9177;49.156;8.142;2023-04-25T01:58:37;0.70;;;0.70;;
18100;SDS011;9177;49.156;8.142;2023-04-25T02:01:04;0.97;;;0.90;;
18100;SDS011;9177;49.156;8.142;2023-04-25T02:03:31;0.70;;;0.70;;
18100;SDS011;9177;49.156;8.142;2023-04-25T02:05:58;0.57;;;0.57;;
18100;SDS011;9177;49.156;8.142;2023-04-25T02:08:25;0.60;;;0.60;;
18100;SDS011;9177;49.156;8.142;2023-04-25T02:10:52;0.60;;;0.60;;
18100;SDS011;9177;49.156;8.142;2023-04-25T02:13:21;1.17;;;0.70;;
18100;SDS011;9177;49.156;8.142;2023-04-25T02:15:47;0.70;;;0.70;;
18100;SDS011;9177;49.156;8.142;2023-04-25T02:18:14;1.23;;;0.60;;
18100;SDS011;9177;49.156;8.142;2023-04-25T02:20:42;0.67;;;0.67;;
18100;SDS011;9177;49.156;8.142;2023-04-25T02:23:09;0.73;;;0.73;;
18100;SDS011;9177;49.156;8.142;2023-04-25T02:25:36;0.60;;;0.60;;
18100;SDS011;9177;49.156;8.142;2023-04-25T02:28:03;0.70;;;0.70;;
18100;SDS011;9177;49.156;8.142;2023-04-25T02:30:31;0.67;;;0.67;;
18100;SDS011;9177;49.156;8.142;2023-04-25T02:32:58;0.70;;;0.70;;
18100;SDS011;9177;49.156;8.142;2023-04-25T02:35:25;1.30;;;0.70;;
18100;SDS011;9177;49.156;8.142;2023-04-25T02:37:52;1.80;;;0.73;;
18100;SDS011;9177;49.156;8.142;2023-04-25T02:40:19;0.70;;;0.70;;
18100;SDS011;9177;49.156;8.142;2023-04-25T02:42:46;0.83;;;0.67;;
18100;SDS011;9177;49.156;8.142;2023-04-25T02:45:13;0.60;;;0.60;;
18100;SDS011;9177;49.156;8.142;2023-04-25T02:47:42;1.30;;;0.70;;
18100;SDS011;9177;49.156;8.142;2023-04-25T02:50:09;0.70;;;0.70;;
18100;SDS011;9177;49.156;8.142;2023-04-25T02:52:36;0.77;;;0.70;;
18100;SDS011;9177;49.156;8.142;2023-04-25T02:55:03;0.87;;;0.60;;
18100;SDS011;9177;49.156;8.142;2023-04-25T02:57:30;0.53;;;0.53;;
18100;SDS011;9177;49.156;8.142;2023-04-25T02:59:57;0.60;;;0.50;;
18100;SDS011;9177;49.156;8.142;2023-04-25T03:02:24;0.80;;;0.80;;
18100;SDS011;9177;49.156;8.142;2023-04-25T03:04:52;0.57;;;0.57;;
18100;SDS011;9177;49.156;8.142;2023-04-25T03:07:19;0.57;;;0.50;;
18100;SDS011;9177;49.156;8.142;2023-04-25T03:09:46;0.50;;;0.50;;
18100;SDS011;9177;49.156;8.142;2023-04-25T03:12:13;0.57;;;0.57;;
18100;SDS011;9177;49.156;8.142;2023-04-25T03:14:39;0.90;;;0.70;;
18100;SDS011;9177;49.156;8.142;2023-04-25T03:17:06;0.90;;;0.70;;
18100;SDS011;9177;49.156;8.142;2023-04-25T03:19:33;0.70;;;0.50;;
18100;SDS011;9177;49.156;8.142;2023-04-25T03:22:01;0.60;;;0.60;;
18100;SDS011;9177;49.156;8.142;2023-04-25T03:24:28;0.70;;;0.67;;
18100;SDS011;9177;49.156;8.142;2023-04-25T03:26:55;0.80;;;0.80;;
18100;SDS011;9177;49.156;8.142;2023-04-25T03:29:22;1.27;;;0.70;;
18100;SDS011;9177;49.156;8.142;2023-04-25T03:31:51;0.60;;;0.60;;
18100;SDS011;9177;49.156;8.142;2023-04-25T03:34:18;0.50;;;0.40;;
18100;SDS011;9177;49.156;8.142;2023-04-25T03:36:46;0.47;;;0.47;;
18100;SDS011;9177;49.156;8.142;2023-04-25T03:39:14;0.63;;;0.63;;
18100;SDS011;9177;49.156;8.142;2023-04-25T03:41:41;1.20;;;0.70;;
18100;SDS011;9177;49.156;8.142;2023-04-25T03:44:08;0.60;;;0.60;;
18100;SDS011;9177;49.156;8.142;2023-04-25T03:46:35;0.60;;;0.50;;
18100;SDS011;9177;49.156;8.142;2023-04-25T03:49:02;0.60;;;0.60;;
18100;SDS011;9177;49.156;8.142;2023-04-25T03:51:29;0.73;;;0.57;;
18100;SDS011;9177;49.156;8.142;2023-04-25T03:53:56;0.80;;;0.60;;
18100;SDS011;9177;49.156;8.142;2023-04-25T03:56:24;1.60;;;0.60;;
18100;SDS011;9177;49.156;8.142;2023-04-25T03:58:51;1.07;;;0.70;;
18100;SDS011;9177;49.156;8.142;2023-04-25T04:01:18;0.60;;;0.60;;
18100;SDS011;9177;49.156;8.142;2023-04-25T04:03:45;0.70;;;0.67;;
18100;SDS011;9177;49.156;8.142;2023-04-25T04:06:11;0.47;;;0.47;;
18100;SDS011;9177;49.156;8.142;2023-04-25T04:08:40;0.67;;;0.67;;
18100;SDS011;9177;49.156;8.142;2023-04-25T04:11:07;0.60;;;0.60;;
18100;SDS011;9177;49.156;8.142;2023-04-25T04:13:35;1.27;;;0.70;;
18100;SDS011;9177;49.156;8.142;2023-04-25T04:16:02;0.70;;;0.70;;
18100;SDS011;9177;49.156;8.142;2023-04-25T04:18:29;0.90;;;0.80;;
18100;SDS011;9177;49.156;8.142;2023-04-25T04:20:56;0.60;;;0.60;;
18100;SDS011;9177;49.156;8.142;2023-04-25T04:23:23;0.60;;;0.60;;
18100;SDS011;9177;49.156;8.142;2023-04-25T04:25:52;0.67;;;0.67;;
18100;SDS011;9177;49.156;8.142;2023-04-25T04:28:19;1.30;;;0.60;;
18100;SDS011;9177;49.156;8.142;2023-04-25T04:30:48;0.93;;;0.67;;
18100;SDS011;9177;49.156;8.142;2023-04-25T04:33:16;0.70;;;0.70;;
18100;SDS011;9177;49.156;8.142;2023-04-25T04:35:45;0.50;;;0.50;;
18100;SDS011;9177;49.156;8.142;2023-04-25T04:38:12;0.60;;;0.60;;
18100;SDS011;9177;49.156;8.142;2023-04-25T04:40:40;1.37;;;0.70;;
18100;SDS011;9177;49.156;8.142;2023-04-25T04:43:08;0.87;;;0.70;;
18100;SDS011;9177;49.156;8.142;2023-04-25T04:45:35;0.80;;;0.80;;
18100;SDS011;9177;49.156;8.142;2023-04-25T04:48:04;0.70;;;0.53;;
18100;SDS011;9177;49.156;8.142;2023-04-25T04:50:32;0.77;;;0.70;;
18100;SDS011;9177;49.156;8.142;2023-04-25T04:52:59;0.70;;;0.60;;
18100;SDS011;9177;49.156;8.142;2023-04-25T04:55:25;0.40;;;0.40;;
18100;SDS011;9177;49.156;8.142;2023-04-25T04:57:52;0.60;;;0.60;;
18100;SDS011;9177;49.156;8.142;2023-04-25T05:00:19;0.60;;;0.60;;
18100;SDS011;9177;49.156;8.142;2023-04-25T05:02:46;0.80;;;0.60;;
18100;SDS011;9177;49.156;8.142;2023-04-25T05:05:18;0.60;;;0.60;;
18100;SDS011;9177;49.156;8.142;2023-04-25T05:07:44;0.60;;;0.60;;
18100;SDS011;9177;49.156;8.142;2023-04-25T05:10:11;0.60;;;0.60;;
18100;SDS011;9177;49.156;8.142;2023-04-25T05:12:38;0.70;;;0.70;;
18100;SDS011;9177;49.156;8.142;2023-04-25T05:15:08;0.63;;;0.63;;
18100;SDS011;9177;49.156;8.142;2023-04-25T05:17:36;0.50;;;0.50;;
18100;SDS011;9177;49.156;8.142;2023-04-25T05:20:04;0.70;;;0.70;;
18100;SDS011;9177;49.156;8.142;2023-04-25T05:22:35;0.60;;;0.60;;
18100;SDS011;9177;49.156;8.142;2023-04-25T05:25:02;0.70;;;0.70;;
18100;SDS011;9177;49.156;8.142;2023-04-25T05:27:30;0.57;;;0.57;;
18100;SDS011;9177;49.156;8.142;2023-04-25T05:29:57;1.03;;;0.87;;
18100;SDS011;9177;49.156;8.142;2023-04-25T05:32:24;0.70;;;0.70;;
18100;SDS011;9177;49.156;8.142;2023-04-25T05:34:51;0.80;;;0.80;;
18100;SDS011;9177;49.156;8.142;2023-04-25T05:37:18;0.70;;;0.70;;
18100;SDS011;9177;49.156;8.142;2023-04-25T05:39:48;0.90;;;0.70;;
18100;SDS011;9177;49.156;8.142;2023-04-25T05:42:24;0.70;;;0.70;;
18100;SDS011;9177;49.156;8.142;2023-04-25T05:44:50;1.07;;;0.80;;
18100;SDS011;9177;49.156;8.142;2023-04-25T05:47:17;0.70;;;0.70;;
18100;SDS011;9177;49.156;8.142;2023-04-25T05:49:44;0.90;;;0.90;;
18100;SDS011;9177;49.156;8.142;2023-04-25T05:52:11;0.80;;;0.80;;
18100;SDS011;9177;49.156;8.142;2023-04-25T05:54:42;0.90;;;0.90;;
18100;SDS011;9177;49.156;8.142;2023-04-25T05:57:19;0.70;;;0.57;;
18100;SDS011;9177;49.156;8.142;2023-04-25T05:59:47;0.77;;;0.70;;
18100;SDS011;9177;49.156;8.142;2023-04-25T06:02:14;0.80;;;0.70;;
18100;SDS011;9177;49.156;8.142;2023-04-25T06:04:41;0.80;;;0.80;;
18100;SDS011;9177;49.156;8.142;2023-04-25T06:07:08;1.67;;;1.00;;
18100;SDS011;9177;49.156;8.142;2023-04-25T06:09:35;0.80;;;0.80;;
18100;SDS011;9177;49.156;8.142;2023-04-25T06:12:04;0.90;;;0.90;;
18100;SDS011;9177;49.156;8.142;2023-04-25T06:14:33;1.17;;;0.90;;
18100;SDS011;9177;49.156;8.142;2023-04-25T06:17:00;0.77;;;0.70;;
18100;SDS011;9177;49.156;8.142;2023-04-25T06:19:31;1.00;;;0.90;;
18100;SDS011;9177;49.156;8.142;2023-04-25T06:21:58;0.87;;;0.80;;
18100;SDS011;9177;49.156;8.142;2023-04-25T06:24:28;1.20;;;0.90;;
18100;SDS011;9177;49.156;8.142;2023-04-25T06:26:56;0.87;;;0.87;;
18100;SDS011;9177;49.156;8.142;2023-04-25T06:29:23;1.70;;;0.93;;
18100;SDS011;9177;49.156;8.142;2023-04-25T06:31:51;0.97;;;0.90;;
18100;SDS011;9177;49.156;8.142;2023-04-25T06:34:18;1.20;;;1.00;;
18100;SDS011;9177;49.156;8.142;2023-04-25T06:36:48;1.23;;;1.10;;
18100;SDS011;9177;49.156;8.142;2023-04-25T06:39:14;0.90;;;0.90;;
18100;SDS011;9177;49.156;8.142;2023-04-25T06:41:41;0.90;;;0.90;;
18100;SDS011;9177;49.156;8.142;2023-04-25T06:44:08;1.07;;;0.87;;
18100;SDS011;9177;49.156;8.142;2023-04-25T06:46:35;1.07;;;1.07;;
18100;SDS011;9177;49.156;8.142;2023-04-25T06:49:04;0.90;;;0.90;;
18100;SDS011;9177;49.156;8.142;2023-04-25T06:51:31;1.10;;;1.00;;
18100;SDS011;9177;49.156;8.142;2023-04-25T06:53:57;13.07;;;2.10;;
18100;SDS011;9177;49.156;8.142;2023-04-25T06:56:25;17.50;;;2.70;;
18100;SDS011;9177;49.156;8.142;2023-04-25T06:58:53;10.33;;;2.07;;
18100;SDS011;9177;49.156;8.142;2023-04-25T07:01:19;12.73;;;2.00;;
18100;SDS011;9177;49.156;8.142;2023-04-25T07:03:46;33.03;;;3.97;;
18100;SDS011;9177;49.156;8.142;2023-04-25T07:06:14;50.00;;;5.20;;
18100;SDS011;9177;49.156;8.142;2023-04-25T07:08:41;43.10;;;5.20;;
18100;SDS011;9177;49.156;8.142;2023-04-25T07:11:08;44.70;;;4.93;;
18100;SDS011;9177;49.156;8.142;2023-04-25T07:13:35;26.17;;;3.93;;
18100;SDS011;9177;49.156;8.142;2023-04-25T07:16:02;21.67;;;3.53;;
18100;SDS011;9177;49.156;8.142;2023-04-25T07:18:30;13.77;;;2.40;;
18100;SDS011;9177;49.156;8.142;2023-04-25T07:20:57;39.83;;;4.20;;
18100;SDS011;9177;49.156;8.142;2023-04-25T07:23:25;19.23;;;3.10;;
18100;SDS011;9177;49.156;8.142;2023-04-25T07:25:52;16.70;;;3.27;;
18100;SDS011;9177;49.156;8.142;2023-04-25T07:28:19;18.13;;;2.43;;
18100;SDS011;9177;49.156;8.142;2023-04-25T07:30:45;13.43;;;2.83;;
18100;SDS011;9177;49.156;8.142;2023-04-25T07:33:12;23.60;;;3.10;;
18100;SDS011;9177;49.156;8.142;2023-04-25T07:35:39;20.57;;;3.60;;
18100;SDS011;9177;49.156;8.142;2023-04-25T07:38:06;31.05;;;4.53;;
18100;SDS011;9177;49.156;8.142;2023-04-25T07:40:34;41.83;;;5.33;;
18100;SDS011;9177;49.156;8.142;2023-04-25T07:43:04;37.10;;;5.80;;
18100;SDS011;9177;49.156;8.142;2023-04-25T07:45:31;53.23;;;5.43;;
18100;SDS011;9177;49.156;8.142;2023-04-25T07:47:58;62.17;;;7.20;;
18100;SDS011;9177;49.156;8.142;2023-04-25T07:50:25;83.63;;;8.03;;
18100;SDS011;9177;49.156;8.142;2023-04-25T07:52:52;32.93;;;5.30;;
18100;SDS011;9177;49.156;8.142;2023-04-25T07:55:19;48.20;;;6.13;;
18100;SDS011;9177;49.156;8.142;2023-04-25T07:57:48;27.53;;;4.20;;
18100;SDS011;9177;49.156;8.142;2023-04-25T08:00:16;46.53;;;6.63;;
18100;SDS011;9177;49.156;8.142;2023-04-25T08:02:43;37.60;;;5.00;;
18100;SDS011;9177;49.156;8.142;2023-04-25T08:05:10;53.03;;;6.50;;
18100;SDS011;9177;49.156;8.142;2023-04-25T08:07:39;32.53;;;4.80;;
18100;SDS011;9177;49.156;8.142;2023-04-25T08:10:07;37.57;;;5.47;;
18100;SDS011;9177;49.156;8.142;2023-04-25T08:12:34;38.47;;;5.73;;
18100;SDS011;9177;49.156;8.142;2023-04-25T08:15:04;37.77;;;5.77;;
18100;SDS011;9177;49.156;8.142;2023-04-25T08:17:32;41.80;;;6.03;;
18100;SDS011;9177;49.156;8.142;2023-04-25T08:19:59;52.83;;;7.10;;
18100;SDS011;9177;49.156;8.142;2023-04-25T08:22:25;45.47;;;6.37;;
18100;SDS011;9177;49.156;8.142;2023-04-25T08:24:52;34.57;;;5.13;;
18100;SDS011;9177;49.156;8.142;2023-04-25T08:27:19;36.17;;;6.27;;
18100;SDS011;9177;49.156;8.142;2023-04-25T08:29:46;32.87;;;5.67;;
18100;SDS011;9177;49.156;8.142;2023-04-25T08:32:21;34.67;;;5.40;;
18100;SDS011;9177;49.156;8.142;2023-04-25T08:34:48;37.77;;;6.57;;
18100;SDS011;9177;49.156;8.142;2023-04-25T08:37:16;57.70;;;7.47;;
18100;SDS011;9177;49.156;8.142;2023-04-25T08:39:44;40.63;;;6.40;;
18100;SDS011;9177;49.156;8.142;2023-04-25T08:42:12;51.07;;;6.47;;
18100;SDS011;9177;49.156;8.142;2023-04-25T08:44:38;47.30;;;6.30;;
18100;SDS011;9177;49.156;8.142;2023-04-25T08:47:05;70.67;;;7.90;;
18100;SDS011;9177;49.156;8.142;2023-04-25T08:49:34;44.53;;;6.50;;
18100;SDS011;9177;49.156;8.142;2023-04-25T08:52:02;50.33;;;6.20;;
18100;SDS011;9177;49.156;8.142;2023-04-25T08:54:31;47.23;;;6.83;;
18100;SDS011;9177;49.156;8.142;2023-04-25T08:57:00;41.77;;;6.77;;
18100;SDS011;9177;49.156;8.142;2023-04-25T08:59:28;47.77;;;6.43;;
18100;SDS011;9177;49.156;8.142;2023-04-25T09:01:56;43.90;;;7.23;;
18100;SDS011;9177;49.156;8.142;2023-04-25T09:04:24;48.80;;;6.90;;
18100;SDS011;9177;49.156;8.142;2023-04-25T09:06:52;47.77;;;7.53;;
18100;SDS011;9177;49.156;8.142;2023-04-25T09:09:19;37.33;;;5.80;;
18100;SDS011;9177;49.156;8.142;2023-04-25T09:11:46;39.17;;;6.77;;
18100;SDS011;9177;49.156;8.142;2023-04-25T09:14:13;34.37;;;5.90;;
18100;SDS011;9177;49.156;8.142;2023-04-25T09:16:57;38.37;;;6.60;;
18100;SDS011;9177;49.156;8.142;2023-04-25T09:19:26;35.83;;;6.03;;
18100;SDS011;9177;49.156;8.142;2023-04-25T09:21:55;30.50;;;5.47;;
18100;SDS011;9177;49.156;8.142;2023-04-25T09:24:32;39.17;;;6.40;;
18100;SDS011;9177;49.156;8.142;2023-04-25T09:27:02;25.90;;;5.60;;
18100;SDS011;9177;49.156;8.142;2023-04-25T09:29:31;36.13;;;5.47;;
18100;SDS011;9177;49.156;8.142;2023-04-25T09:32:10;37.97;;;6.53;;
18100;SDS011;9177;49.156;8.142;2023-04-25T09:34:42;29.60;;;5.77;;
18100;SDS011;9177;49.156;8.142;2023-04-25T09:37:16;35.07;;;5.80;;
18100;SDS011;9177;49.156;8.142;2023-04-25T09:39:45;27.90;;;5.17;;
18100;SDS011;9177;49.156;8.142;2023-04-25T09:42:13;34.37;;;5.20;;
18100;SDS011;9177;49.156;8.142;2023-04-25T09:44:42;32.33;;;5.67;;
18100;SDS011;9177;49.156;8.142;2023-04-25T09:47:11;24.50;;;5.33;;
18100;SDS011;9177;49.156;8.142;2023-04-25T09:49:39;30.37;;;5.53;;
18100;SDS011;9177;49.156;8.142;2023-04-25T09:52:13;29.83;;;5.30;;
18100;SDS011;9177;49.156;8.142;2023-04-25T09:54:42;30.27;;;5.73;;
18100;SDS011;9177;49.156;8.142;2023-04-25T09:57:10;34.47;;;5.93;;
18100;SDS011;9177;49.156;8.142;2023-04-25T09:59:39;20.33;;;4.83;;
18100;SDS011;9177;49.156;8.142;2023-04-25T10:02:10;25.70;;;5.17;;
18100;SDS011;9177;49.156;8.142;2023-04-25T10:04:38;23.77;;;4.63;;
18100;SDS011;9177;49.156;8.142;2023-04-25T10:07:07;24.67;;;4.80;;
18100;SDS011;9177;49.156;8.142;2023-04-25T10:09:37;20.50;;;4.43;;
18100;SDS011;9177;49.156;8.142;2023-04-25T10:12:05;22.20;;;4.67;;
18100;SDS011;9177;49.156;8.142;2023-04-25T10:14:33;18.77;;;4.63;;
18100;SDS011;9177;49.156;8.142;2023-04-25T10:17:01;21.03;;;4.00;;
18100;SDS011;9177;49.156;8.142;2023-04-25T10:19:28;22.33;;;4.00;;
18100;SDS011;9177;49.156;8.142;2023-04-25T10:21:56;23.73;;;4.27;;
18100;SDS011;9177;49.156;8.142;2023-04-25T10:24:29;17.33;;;4.13;;
18100;SDS011;9177;49.156;8.142;2023-04-25T10:26:57;22.37;;;4.43;;
18100;SDS011;9177;49.156;8.142;2023-04-25T10:29:25;16.33;;;4.33;;
18100;SDS011;9177;49.156;8.142;2023-04-25T10:31:52;13.87;;;3.53;;
18100;SDS011;9177;49.156;8.142;2023-04-25T10:34:23;15.60;;;3.80;;
18100;SDS011;9177;49.156;8.142;2023-04-25T10:37:03;17.73;;;4.03;;
18100;SDS011;9177;49.156;8.142;2023-04-25T10:39:30;14.87;;;4.60;;
18100;SDS011;9177;49.156;8.142;2023-04-25T10:42:03;18.33;;;4.17;;
18100;SDS011;9177;49.156;8.142;2023-04-25T10:44:36;19.77;;;4.50;;
18100;SDS011;9177;49.156;8.142;2023-04-25T10:47:06;16.10;;;3.33;;
18100;SDS011;9177;49.156;8.142;2023-04-25T10:49:35;13.87;;;4.07;;
18100;SDS011;9177;49.156;8.142;2023-04-25T10:54:52;13.63;;;3.87;;
18100;SDS011;9177;49.156;8.142;2023-04-25T10:57:30;6.90;;;3.00;;
18100;SDS011;9177;49.156;8.142;2023-04-25T10:59:59;9.90;;;3.07;;
18100;SDS011;9177;49.156;8.142;2023-04-25T11:02:37;15.10;;;3.90;;
18100;SDS011;9177;49.156;8.142;2023-04-25T11:05:08;12.20;;;3.33;;
18100;SDS011;9177;49.156;8.142;2023-04-25T11:07:37;10.20;;;3.23;;
18100;SDS011;9177;49.156;8.142;2023-04-25T11:10:10;12.07;;;3.73;;
18100;SDS011;9177;49.156;8.142;2023-04-25T11:12:38;9.67;;;3.30;;
18100;SDS011;9177;49.156;8.142;2023-04-25T11:15:06;11.27;;;3.60;;
18100;SDS011;9177;49.156;8.142;2023-04-25T11:17:34;12.97;;;3.47;;
18100;SDS011;9177;49.156;8.142;2023-04-25T11:20:01;12.27;;;3.53;;
18100;SDS011;9177;49.156;8.142;2023-04-25T11:22:32;10.17;;;3.70;;
18100;SDS011;9177;49.156;8.142;2023-04-25T11:25:04;13.90;;;3.93;;
18100;SDS011;9177;49.156;8.142;2023-04-25T11:27:32;8.93;;;3.23;;
18100;SDS011;9177;49.156;8.142;2023-04-25T11:30:10;10.87;;;3.53;;
18100;SDS011;9177;49.156;8.142;2023-04-25T11:32:39;12.90;;;3.27;;
18100;SDS011;9177;49.156;8.142;2023-04-25T11:35:07;10.67;;;2.93;;
18100;SDS011;9177;49.156;8.142;2023-04-25T11:37:34;15.53;;;3.40;;
18100;SDS011;9177;49.156;8.142;2023-04-25T11:40:02;13.93;;;3.50;;
18100;SDS011;9177;49.156;8.142;2023-04-25T11:42:31;14.97;;;3.37;;
18100;SDS011;9177;49.156;8.142;2023-04-25T11:44:58;13.53;;;2.83;;
18100;SDS011;9177;49.156;8.142;2023-04-25T11:47:29;13.53;;;3.00;;
18100;SDS011;9177;49.156;8.142;2023-04-25T11:49:57;9.13;;;2.90;;
18100;SDS011;9177;49.156;8.142;2023-04-25T11:52:35;7.93;;;2.50;;
18100;SDS011;9177;49.156;8.142;2023-04-25T11:55:03;12.60;;;3.13;;
18100;SDS011;9177;49.156;8.142;2023-04-25T11:57:32;10.70;;;2.77;;
18100;SDS011;9177;49.156;8.142;2023-04-25T12:00:05;7.10;;;2.97;;
18100;SDS011;9177;49.156;8.142;2023-04-25T12:02:35;9.00;;;2.87;;
18100;SDS011;9177;49.156;8.142;2023-04-25T12:05:05;6.23;;;2.50;;
18100;SDS011;9177;49.156;8.142;2023-04-25T12:07:33;7.80;;;2.83;;
18100;SDS011;9177;49.156;8.142;2023-04-25T12:10:04;8.17;;;2.77;;
18100;SDS011;9177;49.156;8.142;2023-04-25T12:12:32;7.40;;;2.70;;
18100;SDS011;9177;49.156;8.142;2023-04-25T12:15:07;5.20;;;2.60;;
18100;SDS011;9177;49.156;8.142;2023-04-25T12:17:38;6.57;;;2.77;;
18100;SDS011;9177;49.156;8.142;2023-04-25T12:20:06;6.97;;;2.60;;
18100;SDS011;9177;49.156;8.142;2023-04-25T12:22:34;9.23;;;2.67;;
18100;SDS011;9177;49.156;8.142;2023-04-25T12:25:02;7.97;;;2.40;;
18100;SDS011;9177;49.156;8.142;2023-04-25T12:27:30;3.87;;;2.40;;
18100;SDS011;9177;49.156;8.142;2023-04-25T12:29:58;5.57;;;2.37;;
18100;SDS011;9177;49.156;8.142;2023-04-25T12:32:25;5.57;;;2.23;;
18100;SDS011;9177;49.156;8.142;2023-04-25T12:34:56;5.10;;;2.17;;
18100;SDS011;9177;49.156;8.142;2023-04-25T12:37:23;8.50;;;2.57;;
18100;SDS011;9177;49.156;8.142;2023-04-25T12:39:50;7.40;;;2.07;;
18100;SDS011;9177;49.156;8.142;2023-04-25T12:42:17;5.90;;;2.30;;
18100;SDS011;9177;49.156;8.142;2023-04-25T12:44:44;6.40;;;2.43;;
18100;SDS011;9177;49.156;8.142;2023-04-25T12:47:11;9.50;;;2.43;;
18100;SDS011;9177;49.156;8.142;2023-04-25T12:49:38;7.30;;;2.40;;
18100;SDS011;9177;49.156;8.142;2023-04-25T12:52:07;7.70;;;2.47;;
18100;SDS011;9177;49.156;8.142;2023-04-25T12:54:34;8.37;;;2.50;;
18100;SDS011;9177;49.156;8.142;2023-04-25T12:57:01;6.40;;;2.07;;
18100;SDS011;9177;49.156;8.142;2023-04-25T12:59:28;9.83;;;2.30;;
18100;SDS011;9177;49.156;8.142;2023-04-25T13:01:55;6.20;;;2.30;;
18100;SDS011;9177;49.156;8.142;2023-04-25T13:04:22;4.83;;;2.27;;
18100;SDS011;9177;49.156;8.142;2023-04-25T13:06:49;7.23;;;2.40;;
18100;SDS011;9177;49.156;8.142;2023-04-25T13:09:17;8.40;;;2.37;;
18100;SDS011;9177;49.156;8.142;2023-04-25T13:11:45;5.57;;;2.43;;
18100;SDS011;9177;49.156;8.142;2023-04-25T13:14:12;8.23;;;2.50;;
18100;SDS011;9177;49.156;8.142;2023-04-25T13:16:40;5.67;;;2.33;;
18100;SDS011;9177;49.156;8.142;2023-04-25T13:19:07;4.53;;;2.27;;
18100;SDS011;9177;49.156;8.142;2023-04-25T13:21:37;6.20;;;2.63;;
18100;SDS011;9177;49.156;8.142;2023-04-25T13:24:04;10.50;;;2.60;;
18100;SDS011;9177;49.156;8.142;2023-04-25T13:26:33;8.10;;;2.10;;
18100;SDS011;9177;49.156;8.142;2023-04-25T13:28:59;7.50;;;2.50;;
18100;SDS011;9177;49.156;8.142;2023-04-25T13:31:28;7.77;;;2.70;;
18100;SDS011;9177;49.156;8.142;2023-04-25T13:33:55;4.10;;;2.20;;
18100;SDS011;9177;49.156;8.142;2023-04-25T13:36:22;4.73;;;2.30;;
18100;SDS011;9177;49.156;8.142;2023-04-25T13:38:50;7.67;;;2.50;;
18100;SDS011;9177;49.156;8.142;2023-04-25T13:41:17;10.97;;;2.67;;
18100;SDS011;9177;49.156;8.142;2023-04-25T13:43:46;6.17;;;2.33;;
18100;SDS011;9177;49.156;8.142;2023-04-25T13:46:16;8.00;;;2.43;;
18100;SDS011;9177;49.156;8.142;2023-04-25T13:48:43;8.80;;;2.63;;
18100;SDS011;9177;49.156;8.142;2023-04-25T13:51:13;8.30;;;2.77;;
18100;SDS011;9177;49.156;8.142;2023-04-25T13:53:42;8.90;;;2.47;;
18100;SDS011;9177;49.156;8.142;2023-04-25T13:56:09;7.27;;;2.03;;
18100;SDS011;9177;49.156;8.142;2023-04-25T13:58:37;5.43;;;2.57;;
18100;SDS011;9177;49.156;8.142;2023-04-25T14:01:05;5.33;;;2.27;;
18100;SDS011;9177;49.156;8.142;2023-04-25T14:03:32;8.03;;;2.30;;
18100;SDS011;9177;49.156;8.142;2023-04-25T14:05:59;6.33;;;2.07;;
18100;SDS011;9177;49.156;8.142;2023-04-25T14:08:26;7.43;;;2.10;;
18100;SDS011;9177;49.156;8.142;2023-04-25T14:10:53;5.70;;;2.37;;
18100;SDS011;9177;49.156;8.142;2023-04-25T14:13:20;6.80;;;2.10;;
18100;SDS011;9177;49.156;8.142;2023-04-25T14:15:48;8.30;;;2.10;;
18100;SDS011;9177;49.156;8.142;2023-04-25T14:18:18;9.53;;;2.23;;
18100;SDS011;9177;49.156;8.142;2023-04-25T14:20:45;6.23;;;2.03;;
18100;SDS011;9177;49.156;8.142;2023-04-25T14:23:12;6.67;;;2.03;;
18100;SDS011;9177;49.156;8.142;2023-04-25T14:25:39;5.17;;;2.17;;
18100;SDS011;9177;49.156;8.142;2023-04-25T14:28:07;6.40;;;2.23;;
18100;SDS011;9177;49.156;8.142;2023-04-25T14:30:34;7.50;;;2.20;;
18100;SDS011;9177;49.156;8.142;2023-04-25T14:33:01;8.77;;;2.23;;
18100;SDS011;9177;49.156;8.142;2023-04-25T14:35:29;6.73;;;2.20;;
18100;SDS011;9177;49.156;8.142;2023-04-25T14:37:56;6.63;;;2.27;;
18100;SDS011;9177;49.156;8.142;2023-04-25T14:40:23;4.33;;;2.20;;
18100;SDS011;9177;49.156;8.142;2023-04-25T14:42:50;5.90;;;2.40;;
18100;SDS011;9177;49.156;8.142;2023-04-25T14:45:20;5.93;;;2.20;;
18100;SDS011;9177;49.156;8.142;2023-04-25T14:47:47;4.20;;;2.20;;
18100;SDS011;9177;49.156;8.142;2023-04-25T14:50:14;7.27;;;2.10;;
18100;SDS011;9177;49.156;8.142;2023-04-25T14:52:42;5.37;;;2.23;;
18100;SDS011;9177;49.156;8.142;2023-04-25T14:55:10;6.30;;;2.17;;
18100;SDS011;9177;49.156;8.142;2023-04-25T14:57:37;4.97;;;2.17;;
18100;SDS011;9177;49.156;8.142;2023-04-25T15:00:04;9.87;;;2.40;;
18100;SDS011;9177;49.156;8.142;2023-04-25T15:02:34;6.03;;;2.17;;
18100;SDS011;9177;49.156;8.142;2023-04-25T15:05:01;7.33;;;2.20;;